This is the latest recevied weather packets stored in our database for station/object PY2VE-13. If no packets are shown the sender has not sent any weather packets the latest 10 day(s).
| Time | Temp. | Humidity | Pressure | Rain* | Wind** | Luminosity | Snow |
|---|---|---|---|---|---|---|---|
| 1778096037 | 33.33° C | 28% | 1019.4 hPa | - | - | - | - |
| 1778095137 | 35.56° C | 25% | 1019.1 hPa | - | - | - | - |
| 1778094237 | 47.78° C | 13% | 1016.3 hPa | - | - | - | - |
| 1778093337 | 52.78° C | 10% | 1015.3 hPa | - | - | - | - |
| 1778092437 | 36.11° C | 24% | 1018.9 hPa | - | - | - | - |
| 1778091537 | 33.33° C | 28% | 1019.5 hPa | - | - | - | - |
| 1778090637 | 32.78° C | 28% | 1019.9 hPa | - | - | - | - |
| 1778089737 | 32.22° C | 29% | 1020.1 hPa | - | - | - | - |
| 1778088837 | 32.78° C | 28% | 1020.3 hPa | - | - | - | - |
| 1778087937 | 32.22° C | 27% | 1020.6 hPa | - | - | - | - |
| 1778087036 | 32.22° C | 29% | 1020.9 hPa | - | - | - | - |
| 1778086137 | 32.78° C | 28% | 1021.1 hPa | - | - | - | - |
| 1778085236 | 32.22° C | 29% | 1021.3 hPa | - | - | - | - |
| 1778084336 | 32.22° C | 30% | 1021.7 hPa | - | - | - | - |
| 1778083436 | 31.67° C | 33% | 1022.2 hPa | - | - | - | - |
| 1778081636 | 31.67° C | 34% | 1022.8 hPa | - | - | - | - |
| 1778080736 | 31.11° C | 34% | 1023.2 hPa | - | - | - | - |
| 1778079836 | 30.56° C | 37% | 1023.4 hPa | - | - | - | - |
| 1778078936 | 30.56° C | 38% | 1023.8 hPa | - | - | - | - |
| 1778078036 | 31.11° C | 38% | 1023.9 hPa | - | - | - | - |
| 1778077136 | 30.56° C | 39% | 1024.3 hPa | - | - | - | - |
| 1778076236 | 30.56° C | 39% | 1024.5 hPa | - | - | - | - |
| 1778075341 | 30° C | 40% | 1024.9 hPa | - | - | - | - |
| 1778074436 | 30.56° C | 40% | 1025.1 hPa | - | - | - | - |
| 1778073536 | 30° C | 40% | 1025.4 hPa | - | - | - | - |
* Rain since midnight (hover to see other rain measurements)
** Current wind speed in m/s (hover to see current wind gust speed)